createdAt,value
2023-02-26T00:00:00.983Z,1008.6
2023-02-26T00:01:16.196Z,1008.7
2023-02-26T00:02:32.377Z,1008.7
2023-02-26T00:03:48.629Z,1008.7
2023-02-26T00:05:04.811Z,1008.7
2023-02-26T00:06:20.995Z,1008.7
2023-02-26T00:07:37.194Z,1008.8
2023-02-26T00:08:53.310Z,1008.8
2023-02-26T00:10:09.563Z,1008.7
2023-02-26T00:11:25.757Z,1008.8
2023-02-26T00:12:41.888Z,1008.7
2023-02-26T00:13:58.143Z,1008.8
2023-02-26T00:15:14.261Z,1008.8
2023-02-26T00:16:30.445Z,1008.8
2023-02-26T00:17:45.720Z,1008.8
2023-02-26T00:19:01.897Z,1008.8
2023-02-26T00:20:18.087Z,1008.9
2023-02-26T00:21:34.226Z,1008.9
2023-02-26T00:22:50.462Z,1008.9
2023-02-26T00:24:06.603Z,1008.9
2023-02-26T00:25:22.852Z,1009
2023-02-26T00:26:38.009Z,1009
2023-02-26T00:27:53.195Z,1009.1
2023-02-26T00:29:08.431Z,1009
2023-02-26T00:30:23.689Z,1009
2023-02-26T00:31:38.846Z,1009.1
2023-02-26T00:32:54.115Z,1009
2023-02-26T00:34:10.311Z,1009.1
2023-02-26T00:35:26.489Z,1009.1
2023-02-26T00:36:42.679Z,1009
2023-02-26T00:37:58.799Z,1009.1
2023-02-26T00:39:14.996Z,1009.1
2023-02-26T00:40:31.243Z,1009.2
2023-02-26T00:41:47.440Z,1009.2
2023-02-26T00:43:03.613Z,1009.3
2023-02-26T00:44:19.805Z,1009.3
2023-02-26T00:45:36.001Z,1009.2
2023-02-26T00:46:52.123Z,1009.2
2023-02-26T00:48:08.388Z,1009.3
2023-02-26T00:49:23.519Z,1009.2
2023-02-26T00:50:39.779Z,1009.3
2023-02-26T00:51:55.895Z,1009.3
2023-02-26T00:53:12.078Z,1009.3
2023-02-26T00:54:28.272Z,1009.4
2023-02-26T00:55:44.539Z,1009.4
2023-02-26T00:57:00.726Z,1009.3
2023-02-26T00:58:15.937Z,1009.5
2023-02-26T00:59:31.130Z,1009.5
2023-02-26T01:00:47.321Z,1009.4
2023-02-26T01:02:03.512Z,1009.4
2023-02-26T01:03:19.711Z,1009.4
2023-02-26T01:04:35.813Z,1009.4
2023-02-26T01:05:52.022Z,1009.4
2023-02-26T01:07:08.267Z,1009.4
2023-02-26T01:08:24.467Z,1009.5
2023-02-26T01:09:40.577Z,1009.5
2023-02-26T01:10:56.835Z,1009.5
2023-02-26T01:12:13.028Z,1009.5
2023-02-26T01:13:29.228Z,1009.5
2023-02-26T01:14:45.325Z,1009.5
2023-02-26T01:16:00.545Z,1009.5
2023-02-26T01:17:16.726Z,1009.5
2023-02-26T01:18:32.906Z,1009.6
2023-02-26T01:19:49.104Z,1009.6
2023-02-26T01:21:05.407Z,1009.6
2023-02-26T01:22:21.586Z,1009.6
2023-02-26T01:23:37.784Z,1009.6
2023-02-26T01:24:52.877Z,1009.6
2023-02-26T01:26:08.194Z,1009.6
2023-02-26T01:27:24.387Z,1009.7
2023-02-26T01:28:40.586Z,1009.7
2023-02-26T01:29:56.651Z,1009.7
2023-02-26T01:31:12.950Z,1009.6
2023-02-26T01:32:29.144Z,1009.7
2023-02-26T01:33:45.337Z,1009.7
2023-02-26T01:35:01.532Z,1009.7
2023-02-26T01:36:17.717Z,1009.7
2023-02-26T01:37:33.786Z,1009.7
2023-02-26T01:38:48.997Z,1009.7
2023-02-26T01:40:05.194Z,1009.8
2023-02-26T01:41:21.371Z,1009.8
2023-02-26T01:42:37.562Z,1009.7
2023-02-26T01:45:10.064Z,1009.8
2023-02-26T01:46:26.246Z,1009.8
2023-02-26T01:47:42.321Z,1009.8
2023-02-26T01:48:58.617Z,1009.9
2023-02-26T01:50:14.696Z,1009.9
2023-02-26T01:51:30.993Z,1009.9
2023-02-26T01:52:46.215Z,1009.8
2023-02-26T01:54:01.424Z,1009.9
2023-02-26T01:55:16.528Z,1009.9
2023-02-26T01:56:31.725Z,1009.9
2023-02-26T01:57:46.941Z,1009.9
2023-02-26T01:59:02.257Z,1009.9
2023-02-26T02:00:18.464Z,1009.9
2023-02-26T02:01:34.647Z,1009.9
2023-02-26T02:02:50.707Z,1010
2023-02-26T02:04:07.014Z,1010
2023-02-26T02:05:23.203Z,1010
2023-02-26T02:06:39.404Z,1010
2023-02-26T02:07:55.585Z,1010
2023-02-26T02:09:11.660Z,1010
2023-02-26T02:10:27.846Z,1010
2023-02-26T02:11:44.156Z,1010
2023-02-26T02:13:00.219Z,1010.1
2023-02-26T02:14:16.534Z,1010.1
2023-02-26T02:15:31.622Z,1010.1
2023-02-26T02:16:47.809Z,1010.2
2023-02-26T02:18:03.988Z,1010.2
2023-02-26T02:19:20.307Z,1010.1
2023-02-26T02:20:36.491Z,1010.2
2023-02-26T02:21:52.695Z,1010.2
2023-02-26T02:23:08.876Z,1010.3
2023-02-26T02:24:24.081Z,1010.1
2023-02-26T02:25:39.298Z,1010.2
2023-02-26T02:26:55.490Z,1010.2
2023-02-26T02:28:11.677Z,1010.3
2023-02-26T02:29:27.872Z,1010.3
2023-02-26T02:30:43.935Z,1010.4
2023-02-26T02:32:00.238Z,1010.4
2023-02-26T02:33:16.313Z,1010.4
2023-02-26T02:34:32.492Z,1010.4
2023-02-26T02:35:48.820Z,1010.4
2023-02-26T02:37:04.989Z,1010.3
2023-02-26T02:38:21.185Z,1010.4
2023-02-26T02:39:37.371Z,1010.4
2023-02-26T02:40:53.564Z,1010.4
2023-02-26T02:42:08.764Z,1010.4
2023-02-26T02:43:24.971Z,1010.5
2023-02-26T02:44:41.145Z,1010.4
2023-02-26T02:45:57.214Z,1010.5
2023-02-26T02:47:13.527Z,1010.5
2023-02-26T02:49:45.913Z,1010.6
2023-02-26T02:51:01.978Z,1010.6
2023-02-26T02:52:17.308Z,1010.6
2023-02-26T02:53:32.520Z,1010.6
2023-02-26T02:54:47.743Z,1010.6
2023-02-26T02:56:02.815Z,1010.6
2023-02-26T02:57:18.165Z,1010.6
2023-02-26T02:58:33.229Z,1010.6
2023-02-26T02:59:49.415Z,1010.7
2023-02-26T03:01:05.743Z,1010.7
2023-02-26T03:02:21.934Z,1010.7
2023-02-26T03:03:38.127Z,1010.7
2023-02-26T03:04:54.175Z,1010.6
2023-02-26T03:06:10.491Z,1010.7
2023-02-26T03:07:26.693Z,1010.7
2023-02-26T03:08:42.866Z,1010.7
2023-02-26T03:09:58.933Z,1010.7
2023-02-26T03:11:15.246Z,1010.7
2023-02-26T03:12:31.446Z,1010.8
2023-02-26T03:13:47.623Z,1010.8
2023-02-26T03:15:02.836Z,1010.8
2023-02-26T03:16:18.891Z,1010.8
2023-02-26T03:17:35.205Z,1010.8
2023-02-26T03:18:51.271Z,1010.9
2023-02-26T03:20:07.458Z,1010.9
2023-02-26T03:21:23.789Z,1010.9
2023-02-26T03:22:39.828Z,1011
2023-02-26T03:23:55.048Z,1011
2023-02-26T03:25:10.262Z,1010.9
2023-02-26T03:26:26.438Z,1011
2023-02-26T03:27:42.772Z,1011
2023-02-26T03:28:58.954Z,1011
2023-02-26T03:30:15.159Z,1011
2023-02-26T03:31:31.201Z,1011.1
2023-02-26T03:32:47.533Z,1011.1
2023-02-26T03:34:03.586Z,1011.1
2023-02-26T03:35:19.772Z,1011.1
2023-02-26T03:36:36.095Z,1011.2
2023-02-26T03:37:52.287Z,1011.1
2023-02-26T03:39:08.472Z,1011.2
2023-02-26T03:40:24.662Z,1011.2
2023-02-26T03:41:39.727Z,1011.2
2023-02-26T03:42:56.054Z,1011.3
2023-02-26T03:44:12.251Z,1011.3
2023-02-26T03:45:28.302Z,1011.3
2023-02-26T03:46:44.636Z,1011.3
2023-02-26T03:48:00.827Z,1011.3
2023-02-26T03:49:16.874Z,1011.4
2023-02-26T03:50:32.233Z,1011.4
2023-02-26T03:51:47.436Z,1011.4
2023-02-26T03:53:02.647Z,1011.4
2023-02-26T03:54:17.848Z,1011.5
2023-02-26T03:55:33.895Z,1011.5
2023-02-26T03:56:50.094Z,1011.5
2023-02-26T03:58:06.265Z,1011.5
2023-02-26T03:59:22.456Z,1011.5
2023-02-26T04:00:38.641Z,1011.5
2023-02-26T04:01:54.980Z,1011.5
2023-02-26T04:03:11.024Z,1011.6
2023-02-26T04:04:27.208Z,1011.6
2023-02-26T04:05:43.543Z,1011.6
2023-02-26T04:06:59.601Z,1011.5
2023-02-26T04:08:15.920Z,1011.6
2023-02-26T04:09:32.114Z,1011.7
2023-02-26T04:10:47.327Z,1011.7
2023-02-26T04:12:03.360Z,1011.7
2023-02-26T04:13:19.701Z,1011.7
2023-02-26T04:14:35.890Z,1011.7
2023-02-26T04:15:51.925Z,1011.7
2023-02-26T04:17:08.272Z,1011.8
2023-02-26T04:18:24.450Z,1011.8
2023-02-26T04:19:39.670Z,1011.7
2023-02-26T04:20:54.866Z,1011.7
2023-02-26T04:22:11.074Z,1011.8
2023-02-26T04:23:26.421Z,1011.7
2023-02-26T04:24:42.599Z,1011.7
2023-02-26T04:25:58.792Z,1011.8
2023-02-26T04:27:14.978Z,1011.8
2023-02-26T04:28:31.031Z,1011.9
2023-02-26T04:29:47.356Z,1011.9
2023-02-26T04:31:03.561Z,1011.9
2023-02-26T04:32:19.730Z,1011.9
2023-02-26T04:33:35.925Z,1011.9
2023-02-26T04:34:51.972Z,1012
2023-02-26T04:36:08.311Z,1011.9
2023-02-26T04:37:24.505Z,1012
2023-02-26T04:38:40.680Z,1011.9
2023-02-26T04:39:55.891Z,1012
2023-02-26T04:41:11.945Z,1012
2023-02-26T04:42:28.120Z,1012
2023-02-26T04:43:44.457Z,1012
2023-02-26T04:45:00.658Z,1012
2023-02-26T04:46:16.848Z,1012.1
2023-02-26T04:47:33.027Z,1012.1
2023-02-26T04:48:48.244Z,1012.1
2023-02-26T04:50:03.297Z,1012.1
2023-02-26T04:51:19.635Z,1012.2
2023-02-26T04:52:35.829Z,1012.1
2023-02-26T04:53:51.864Z,1012.2
2023-02-26T04:55:08.212Z,1012.1
2023-02-26T04:56:24.388Z,1012.2
2023-02-26T04:57:40.594Z,1012.2
2023-02-26T04:58:56.770Z,1012.2
2023-02-26T05:00:12.961Z,1012.2
2023-02-26T05:01:29.155Z,1012.3
2023-02-26T05:02:45.332Z,1012.2
2023-02-26T05:04:01.370Z,1012.3
2023-02-26T05:05:17.728Z,1012.3
2023-02-26T05:06:32.780Z,1012.3
2023-02-26T05:07:49.124Z,1012.3
2023-02-26T05:09:05.157Z,1012.3
2023-02-26T05:10:21.340Z,1012.3
2023-02-26T05:11:37.690Z,1012.3
2023-02-26T05:12:53.717Z,1012.5
2023-02-26T05:14:10.067Z,1012.4
2023-02-26T05:15:25.276Z,1012.4
2023-02-26T05:16:40.476Z,1012.4
2023-02-26T05:17:56.507Z,1012.5
2023-02-26T05:19:12.860Z,1012.5
2023-02-26T05:20:28.898Z,1012.5
2023-02-26T05:21:45.245Z,1012.6
2023-02-26T05:23:01.421Z,1012.6
2023-02-26T05:24:17.622Z,1012.6
2023-02-26T05:25:33.814Z,1012.8
2023-02-26T05:26:49.992Z,1012.7
2023-02-26T05:28:06.000Z,1012.7
2023-02-26T05:29:22.382Z,1012.8
2023-02-26T05:30:38.558Z,1012.8
2023-02-26T05:31:54.588Z,1012.8
2023-02-26T05:33:09.963Z,1012.8
2023-02-26T05:34:26.148Z,1012.9
2023-02-26T05:35:42.333Z,1012.9
2023-02-26T05:36:58.518Z,1012.9
2023-02-26T05:38:14.723Z,1013
2023-02-26T05:39:30.909Z,1012.9
2023-02-26T05:40:46.926Z,1012.9
2023-02-26T05:42:02.147Z,1012.9
2023-02-26T05:43:17.348Z,1013
2023-02-26T05:44:33.547Z,1013
2023-02-26T05:45:49.895Z,1013
2023-02-26T05:47:06.075Z,1013
2023-02-26T05:48:22.282Z,1013
2023-02-26T05:49:38.469Z,1013
2023-02-26T05:50:54.483Z,1013
2023-02-26T05:52:10.834Z,1013.1
2023-02-26T05:53:25.884Z,1013
2023-02-26T05:54:42.245Z,1013
2023-02-26T05:55:58.437Z,1013.1
2023-02-26T05:57:14.462Z,1013.1
2023-02-26T05:58:30.646Z,1013.1
2023-02-26T05:59:47.005Z,1013.1
2023-02-26T06:01:03.022Z,1013.2
2023-02-26T06:02:19.370Z,1013.2
2023-02-26T06:03:35.556Z,1013.2
2023-02-26T06:04:51.598Z,1013.2
2023-02-26T06:06:07.776Z,1013.2
2023-02-26T06:07:24.121Z,1013.3
2023-02-26T06:08:39.353Z,1013.3
2023-02-26T06:09:54.394Z,1013.3
2023-02-26T06:11:09.614Z,1013.3
2023-02-26T06:12:24.970Z,1013.3
2023-02-26T06:13:40.993Z,1013.4
2023-02-26T06:14:57.360Z,1013.4
2023-02-26T06:16:13.549Z,1013.3
2023-02-26T06:17:29.730Z,1013.4
2023-02-26T06:18:45.919Z,1013.4
2023-02-26T06:20:01.945Z,1013.4
2023-02-26T06:21:18.307Z,1013.4
2023-02-26T06:22:34.315Z,1013.4
2023-02-26T06:23:50.684Z,1013.4
2023-02-26T06:25:06.876Z,1013.5
2023-02-26T06:26:23.054Z,1013.5
2023-02-26T06:27:39.252Z,1013.5
2023-02-26T06:28:54.275Z,1013.5
2023-02-26T06:30:10.649Z,1013.5
2023-02-26T06:31:26.655Z,1013.5
2023-02-26T06:32:43.034Z,1013.5
2023-02-26T06:33:59.032Z,1013.5
2023-02-26T06:35:15.234Z,1013.6
2023-02-26T06:36:31.420Z,1013.6
2023-02-26T06:37:46.811Z,1013.6
2023-02-26T06:39:02.001Z,1013.6
2023-02-26T06:40:17.232Z,1013.6
2023-02-26T06:41:32.438Z,1013.7
2023-02-26T06:42:47.650Z,1013.8
2023-02-26T06:44:02.688Z,1013.7
2023-02-26T06:45:18.868Z,1013.8
2023-02-26T06:46:35.052Z,1013.7
2023-02-26T06:47:51.256Z,1013.8
2023-02-26T06:49:07.599Z,1013.7
2023-02-26T06:50:23.801Z,1013.8
2023-02-26T06:51:39.818Z,1013.8
2023-02-26T06:52:56.170Z,1013.9
2023-02-26T06:54:12.368Z,1013.9
2023-02-26T06:55:28.563Z,1013.9
2023-02-26T06:56:44.749Z,1013.9
2023-02-26T06:58:00.929Z,1014
2023-02-26T06:59:16.946Z,1014.1
2023-02-26T07:00:32.146Z,1014
2023-02-26T07:01:48.509Z,1014.2
2023-02-26T07:03:04.518Z,1014.1
2023-02-26T07:04:20.902Z,1014.2
2023-02-26T07:05:37.075Z,1014.2
2023-02-26T07:06:53.270Z,1014.2
2023-02-26T07:08:09.467Z,1014.2
2023-02-26T07:09:24.674Z,1014.2
2023-02-26T07:10:39.878Z,1014.3
2023-02-26T07:11:55.096Z,1014.3
2023-02-26T07:13:10.124Z,1014.3
2023-02-26T07:14:26.310Z,1014.3
2023-02-26T07:15:42.696Z,1014.4
2023-02-26T07:16:58.876Z,1014.4
2023-02-26T07:18:15.057Z,1014.4
2023-02-26T07:19:31.245Z,1014.5
2023-02-26T07:20:47.262Z,1014.5
2023-02-26T07:22:03.630Z,1014.5
2023-02-26T07:23:19.817Z,1014.5
2023-02-26T07:24:36.013Z,1014.5
2023-02-26T07:25:52.205Z,1014.6
2023-02-26T07:27:08.395Z,1014.6
2023-02-26T07:28:24.401Z,1014.6
2023-02-26T07:29:39.784Z,1014.6
2023-02-26T07:30:55.975Z,1014.7
2023-02-26T07:32:11.983Z,1014.7
2023-02-26T07:33:28.344Z,1014.7
2023-02-26T07:34:44.538Z,1014.8
2023-02-26T07:36:00.553Z,1014.8
2023-02-26T07:37:16.923Z,1014.9
2023-02-26T07:38:31.952Z,1014.8
2023-02-26T07:39:47.146Z,1014.8
2023-02-26T07:41:02.555Z,1014.9
2023-02-26T07:42:17.758Z,1015
2023-02-26T07:43:33.952Z,1015
2023-02-26T07:44:49.964Z,1015
2023-02-26T07:46:06.325Z,1015
2023-02-26T07:47:22.527Z,1015
2023-02-26T07:48:38.710Z,1015
2023-02-26T07:49:54.890Z,1015
2023-02-26T07:51:10.904Z,1015
2023-02-26T07:52:27.083Z,1015
2023-02-26T07:53:43.460Z,1015.1
2023-02-26T07:54:59.648Z,1015
2023-02-26T07:56:15.845Z,1015
2023-02-26T07:57:31.845Z,1015
2023-02-26T07:58:47.249Z,1015.1
2023-02-26T08:00:03.237Z,1015.1
2023-02-26T08:01:19.418Z,1015.1
2023-02-26T08:02:35.804Z,1015
2023-02-26T08:03:51.997Z,1015.1
2023-02-26T08:05:08.001Z,1015
2023-02-26T08:06:24.378Z,1015.1
2023-02-26T08:07:39.395Z,1015.1
2023-02-26T08:08:54.800Z,1015.1
2023-02-26T08:10:10.019Z,1015.1
2023-02-26T08:11:25.221Z,1015.1
2023-02-26T08:12:40.436Z,1015.1
2023-02-26T08:13:55.642Z,1015.1
2023-02-26T08:15:11.633Z,1015.2
2023-02-26T08:16:27.828Z,1015.2
2023-02-26T08:17:44.215Z,1015.2
2023-02-26T08:19:00.214Z,1015.2
2023-02-26T08:20:16.595Z,1015.2
2023-02-26T08:21:32.773Z,1015.2
2023-02-26T08:22:48.773Z,1015.3
2023-02-26T08:24:05.147Z,1015.3
2023-02-26T08:25:21.148Z,1015.3
2023-02-26T08:26:37.332Z,1015.4
2023-02-26T08:27:53.718Z,1015.3
2023-02-26T08:29:09.904Z,1015.4
2023-02-26T08:30:24.917Z,1015.4
2023-02-26T08:31:41.115Z,1015.5
2023-02-26T08:32:57.502Z,1015.5
2023-02-26T08:34:13.678Z,1015.5
2023-02-26T08:35:29.873Z,1015.6
2023-02-26T08:36:46.066Z,1015.6
2023-02-26T08:38:02.058Z,1015.6
2023-02-26T08:39:17.468Z,1015.5
2023-02-26T08:40:32.684Z,1015.5
2023-02-26T08:41:47.896Z,1015.6
2023-02-26T08:43:02.894Z,1015.6
2023-02-26T08:44:19.086Z,1015.6
2023-02-26T08:45:35.486Z,1015.7
2023-02-26T08:46:51.657Z,1015.7
2023-02-26T08:48:07.856Z,1015.6
2023-02-26T08:49:24.047Z,1015.6
2023-02-26T08:50:40.227Z,1015.7
2023-02-26T08:51:56.416Z,1015.7
2023-02-26T08:53:12.410Z,1015.7
2023-02-26T08:54:28.807Z,1015.7
2023-02-26T08:55:44.983Z,1015.7
2023-02-26T08:57:01.188Z,1015.7
2023-02-26T08:58:17.363Z,1015.8
2023-02-26T08:59:32.570Z,1015.8
2023-02-26T09:00:48.555Z,1015.8
2023-02-26T09:02:04.949Z,1015.9
2023-02-26T09:03:21.140Z,1015.8
2023-02-26T09:04:37.327Z,1015.9
2023-02-26T09:05:53.515Z,1015.9
2023-02-26T09:07:09.501Z,1015.9
2023-02-26T09:08:24.718Z,1015.9
2023-02-26T09:09:40.132Z,1016
2023-02-26T09:10:55.135Z,1015.9
2023-02-26T09:12:10.565Z,1016
2023-02-26T09:13:26.754Z,1016
2023-02-26T09:14:42.934Z,1016
2023-02-26T09:15:59.121Z,1016
2023-02-26T09:17:15.314Z,1015.9
2023-02-26T09:18:31.302Z,1016
2023-02-26T09:19:47.476Z,1016
2023-02-26T09:21:03.881Z,1016.1
2023-02-26T09:22:19.871Z,1016.1
2023-02-26T09:23:36.045Z,1016.2
2023-02-26T09:24:52.444Z,1016
2023-02-26T09:26:08.633Z,1016.2
2023-02-26T09:27:24.820Z,1016.2
2023-02-26T09:28:40.040Z,1016.2
2023-02-26T09:29:56.227Z,1016.2
2023-02-26T09:31:12.208Z,1016.2
2023-02-26T09:32:28.602Z,1016.3
2023-02-26T09:33:44.794Z,1016.2
2023-02-26T09:35:00.971Z,1016.3
2023-02-26T09:36:17.162Z,1016.3
2023-02-26T09:37:32.388Z,1016.3
2023-02-26T09:38:47.381Z,1016.3
2023-02-26T09:40:03.771Z,1016.4
2023-02-26T09:41:19.974Z,1016.4
2023-02-26T09:42:36.149Z,1016.5
2023-02-26T09:43:52.118Z,1016.4
2023-02-26T09:45:08.305Z,1016.4
2023-02-26T09:46:24.723Z,1016.4
2023-02-26T09:47:40.894Z,1016.5
2023-02-26T09:48:56.876Z,1016.5
2023-02-26T09:50:13.279Z,1016.5
2023-02-26T09:51:29.260Z,1016.5
2023-02-26T09:52:45.649Z,1016.5
2023-02-26T09:54:01.623Z,1016.6
2023-02-26T09:55:17.051Z,1016.6
2023-02-26T09:56:33.236Z,1016.6
2023-02-26T09:57:49.203Z,1016.6
2023-02-26T09:59:05.609Z,1016.6
2023-02-26T10:00:21.785Z,1016.6
2023-02-26T10:01:37.773Z,1016.6
2023-02-26T10:02:54.172Z,1016.6
2023-02-26T10:04:09.390Z,1016.7
2023-02-26T10:05:24.590Z,1016.7
2023-02-26T10:06:39.795Z,1016.7
2023-02-26T10:07:55.015Z,1016.7
2023-02-26T10:09:09.997Z,1016.7
2023-02-26T10:10:25.434Z,1016.8
2023-02-26T10:11:41.612Z,1016.8
2023-02-26T10:12:57.797Z,1016.8
2023-02-26T10:14:13.775Z,1016.9
2023-02-26T10:15:30.172Z,1016.9
2023-02-26T10:16:46.156Z,1016.9
2023-02-26T10:18:02.549Z,1016.9
2023-02-26T10:19:18.747Z,1016.9
2023-02-26T10:20:34.928Z,1017
2023-02-26T10:21:51.110Z,1017
2023-02-26T10:23:07.300Z,1017
2023-02-26T10:24:23.275Z,1016.9
2023-02-26T10:25:39.669Z,1017
2023-02-26T10:26:54.878Z,1017
2023-02-26T10:28:11.061Z,1017
2023-02-26T10:29:27.251Z,1017.1
2023-02-26T10:30:43.437Z,1017.1
2023-02-26T10:31:59.400Z,1017.1
2023-02-26T10:33:15.822Z,1017.2
2023-02-26T10:34:31.774Z,1017.1
2023-02-26T10:35:46.998Z,1017.2
2023-02-26T10:37:02.429Z,1017.1
2023-02-26T10:38:18.608Z,1017.1
2023-02-26T10:39:34.586Z,1017.1
2023-02-26T10:40:50.988Z,1017.2
2023-02-26T10:42:07.000Z,1017.2
2023-02-26T10:43:23.370Z,1017.2
2023-02-26T10:44:39.322Z,1017.2
2023-02-26T10:45:55.729Z,1017.2
2023-02-26T10:47:11.710Z,1017.2
2023-02-26T10:48:27.893Z,1017.2
2023-02-26T10:49:44.293Z,1017.2
2023-02-26T10:51:00.489Z,1017.2
2023-02-26T10:52:16.675Z,1017.2
2023-02-26T10:53:31.875Z,1017.2
2023-02-26T10:54:47.850Z,1017.3
2023-02-26T10:56:04.033Z,1017.2
2023-02-26T10:57:20.436Z,1017.2
2023-02-26T10:58:36.616Z,1017.3
2023-02-26T10:59:52.593Z,1017.3
2023-02-26T11:01:09.009Z,1017.3
2023-02-26T11:02:23.984Z,1017.3
2023-02-26T11:03:39.187Z,1017.3
2023-02-26T11:04:55.599Z,1017.3
2023-02-26T11:06:11.801Z,1017.3
2023-02-26T11:07:27.978Z,1017.3
2023-02-26T11:08:44.170Z,1017.3
2023-02-26T11:10:00.119Z,1017.3
2023-02-26T11:11:16.550Z,1017.3
2023-02-26T11:12:32.725Z,1017.3
2023-02-26T11:13:48.920Z,1017.3
2023-02-26T11:15:05.105Z,1017.3
2023-02-26T11:16:21.299Z,1017.3
2023-02-26T11:17:37.255Z,1017.4
2023-02-26T11:18:53.660Z,1017.3
2023-02-26T11:20:08.861Z,1017.4
2023-02-26T11:21:25.062Z,1017.4
2023-02-26T11:22:41.244Z,1017.4
2023-02-26T11:23:57.198Z,1017.5
2023-02-26T11:25:13.391Z,1017.5
2023-02-26T11:26:29.579Z,1017.5
2023-02-26T11:27:45.993Z,1017.5
2023-02-26T11:29:00.970Z,1017.5
2023-02-26T11:30:16.410Z,1017.6
2023-02-26T11:31:32.611Z,1017.6
2023-02-26T11:32:48.551Z,1017.6
2023-02-26T11:34:04.735Z,1017.6
2023-02-26T11:35:21.166Z,1017.6
2023-02-26T11:36:37.352Z,1017.7
2023-02-26T11:37:53.312Z,1017.6
2023-02-26T11:39:09.491Z,1017.7
2023-02-26T11:40:25.667Z,1017.7
2023-02-26T11:41:42.106Z,1017.6
2023-02-26T11:42:58.275Z,1017.7
2023-02-26T11:44:14.469Z,1017.6
2023-02-26T11:45:30.656Z,1017.7
2023-02-26T11:46:45.868Z,1017.7
2023-02-26T11:48:01.818Z,1017.7
2023-02-26T11:49:18.246Z,1017.7
2023-02-26T11:50:34.195Z,1017.7
2023-02-26T11:51:50.371Z,1017.8
2023-02-26T11:53:06.569Z,1017.7
2023-02-26T11:54:22.988Z,1017.7
2023-02-26T11:55:37.957Z,1017.7
2023-02-26T11:56:53.394Z,1017.7
2023-02-26T11:58:08.627Z,1017.7
2023-02-26T11:59:23.817Z,1017.6
2023-02-26T12:00:38.798Z,1017.7
2023-02-26T12:01:54.239Z,1017.6
2023-02-26T12:03:09.223Z,1017.6
2023-02-26T12:04:24.414Z,1017.7
2023-02-26T12:05:40.599Z,1017.7
2023-02-26T12:06:56.059Z,1017.7
2023-02-26T12:08:11.255Z,1017.7
2023-02-26T12:09:27.450Z,1017.7
2023-02-26T12:10:43.403Z,1017.7
2023-02-26T12:11:59.823Z,1017.6
2023-02-26T12:13:16.002Z,1017.6
2023-02-26T12:14:32.202Z,1017.6
2023-02-26T12:15:48.380Z,1017.6
2023-02-26T12:17:04.579Z,1017.7
2023-02-26T12:18:20.509Z,1017.7
2023-02-26T12:19:36.952Z,1017.8
2023-02-26T12:20:53.147Z,1017.8
2023-02-26T12:22:09.310Z,1017.8
2023-02-26T12:23:25.265Z,1017.8
2023-02-26T12:24:40.709Z,1017.8
2023-02-26T12:25:56.646Z,1017.8
2023-02-26T12:27:13.090Z,1017.8
2023-02-26T12:28:29.274Z,1017.8
2023-02-26T12:29:45.465Z,1017.9
2023-02-26T12:31:01.640Z,1017.9
2023-02-26T12:32:17.837Z,1017.9
2023-02-26T12:33:32.795Z,1017.8
2023-02-26T12:34:48.245Z,1017.9
2023-02-26T12:36:03.459Z,1017.7
2023-02-26T12:37:18.411Z,1017.8
2023-02-26T12:38:34.859Z,1017.8
2023-02-26T12:39:51.036Z,1017.8
2023-02-26T12:41:06.972Z,1017.9
2023-02-26T12:42:23.417Z,1017.9
2023-02-26T12:43:39.595Z,1017.9
2023-02-26T12:44:55.534Z,1017.9
2023-02-26T12:46:11.986Z,1017.8
2023-02-26T12:47:28.154Z,1017.9
2023-02-26T12:48:44.355Z,1017.8
2023-02-26T12:50:00.536Z,1017.8
2023-02-26T12:51:16.717Z,1017.8
2023-02-26T12:52:32.912Z,1017.7
2023-02-26T12:53:48.122Z,1017.7
2023-02-26T12:55:04.313Z,1017.7
2023-02-26T12:56:20.245Z,1017.8
2023-02-26T12:57:36.680Z,1017.9
2023-02-26T12:58:52.607Z,1017.9
2023-02-26T13:00:09.060Z,1018
2023-02-26T13:01:25.001Z,1018
2023-02-26T13:02:40.202Z,1018
2023-02-26T13:03:55.414Z,1018
2023-02-26T13:05:11.840Z,1018
2023-02-26T13:06:28.024Z,1018.1
2023-02-26T13:07:44.222Z,1018.1
2023-02-26T13:09:00.417Z,1018.1
2023-02-26T13:10:16.591Z,1018.1
2023-02-26T13:11:32.779Z,1018.1
2023-02-26T13:12:48.971Z,1018.1
2023-02-26T13:14:05.157Z,1018.2
2023-02-26T13:15:21.353Z,1018.1
2023-02-26T13:16:37.536Z,1018.1
2023-02-26T13:17:53.465Z,1018.1
2023-02-26T13:19:09.912Z,1018.2
2023-02-26T13:20:24.855Z,1018.2
2023-02-26T13:21:41.044Z,1018.2
2023-02-26T13:22:57.233Z,1018.2
2023-02-26T13:24:13.681Z,1018.2
2023-02-26T13:25:29.864Z,1018.2
2023-02-26T13:26:46.050Z,1018.1
2023-02-26T13:28:02.239Z,1018.2
2023-02-26T13:29:17.180Z,1018.2
2023-02-26T13:30:32.648Z,1018.2
2023-02-26T13:31:47.853Z,1018.2
2023-02-26T13:33:02.802Z,1018.2
2023-02-26T13:34:18.024Z,1018.2
2023-02-26T13:35:33.475Z,1018.2
2023-02-26T13:36:49.679Z,1018.2
2023-02-26T13:38:05.863Z,1018.3
2023-02-26T13:39:22.043Z,1018.3
2023-02-26T13:40:38.237Z,1018.3
2023-02-26T13:41:54.412Z,1018.4
2023-02-26T13:43:10.602Z,1018.3
2023-02-26T13:44:26.801Z,1018.4
2023-02-26T13:45:42.728Z,1018.4
2023-02-26T13:46:59.179Z,1018.4
2023-02-26T13:48:15.363Z,1018.4
2023-02-26T13:49:31.284Z,1018.4
2023-02-26T13:50:47.731Z,1018.4
2023-02-26T13:52:02.941Z,1018.4
2023-02-26T13:53:19.129Z,1018.3
2023-02-26T13:54:35.300Z,1018.4
2023-02-26T13:55:51.490Z,1018.4
2023-02-26T13:57:07.420Z,1018.4
2023-02-26T13:58:23.875Z,1018.5
2023-02-26T13:59:39.805Z,1018.4
2023-02-26T14:00:55.274Z,1018.4
2023-02-26T14:02:10.222Z,1018.4
2023-02-26T14:03:26.401Z,1018.4
2023-02-26T14:04:42.595Z,1018.5
2023-02-26T14:05:59.034Z,1018.5
2023-02-26T14:07:15.225Z,1018.5
2023-02-26T14:08:31.419Z,1018.5
2023-02-26T14:09:47.594Z,1018.5
2023-02-26T14:11:03.524Z,1018.5
2023-02-26T14:12:19.710Z,1018.5
2023-02-26T14:13:35.909Z,1018.6
2023-02-26T14:14:52.356Z,1018.6
2023-02-26T14:16:08.536Z,1018.6
2023-02-26T14:17:24.459Z,1018.6
2023-02-26T14:18:39.931Z,1018.6
2023-02-26T14:19:56.125Z,1018.6
2023-02-26T14:21:12.302Z,1018.7
2023-02-26T14:22:27.503Z,1018.6
2023-02-26T14:23:43.699Z,1018.7
2023-02-26T14:24:59.630Z,1018.7
2023-02-26T14:26:16.066Z,1018.6
2023-02-26T14:27:31.284Z,1018.7
2023-02-26T14:28:46.494Z,1018.7
2023-02-26T14:30:01.708Z,1018.7
2023-02-26T14:31:16.914Z,1018.7
2023-02-26T14:32:31.860Z,1018.7
2023-02-26T14:33:47.334Z,1018.7
2023-02-26T14:35:03.506Z,1018.7
2023-02-26T14:36:19.698Z,1018.7
2023-02-26T14:37:35.889Z,1018.7
2023-02-26T14:38:52.078Z,1018.7
2023-02-26T14:40:08.264Z,1018.8
2023-02-26T14:41:24.461Z,1018.7
2023-02-26T14:42:40.375Z,1018.8
2023-02-26T14:43:56.824Z,1018.8
2023-02-26T14:45:13.020Z,1018.9
2023-02-26T14:46:29.197Z,1018.8
2023-02-26T14:47:45.386Z,1018.9
2023-02-26T14:49:01.579Z,1018.9
2023-02-26T14:50:16.500Z,1018.8
2023-02-26T14:51:32.966Z,1018.9
2023-02-26T14:52:49.160Z,1018.9
2023-02-26T14:54:05.353Z,1018.9
2023-02-26T14:55:21.253Z,1019
2023-02-26T14:56:37.718Z,1018.9
2023-02-26T14:57:53.635Z,1018.9
2023-02-26T14:59:09.129Z,1019
2023-02-26T15:00:24.333Z,1018.9
2023-02-26T15:01:40.247Z,1018.9
2023-02-26T15:02:56.698Z,1018.9
2023-02-26T15:04:11.652Z,1018.9
2023-02-26T15:05:27.123Z,1018.9
2023-02-26T15:06:43.308Z,1018.9
2023-02-26T15:07:59.498Z,1018.9
2023-02-26T15:09:15.681Z,1018.9
2023-02-26T15:10:31.861Z,1018.9
2023-02-26T15:11:48.057Z,1018.9
2023-02-26T15:13:04.248Z,1018.9
2023-02-26T15:14:20.156Z,1019
2023-02-26T15:15:36.350Z,1018.9
2023-02-26T15:16:52.803Z,1019
2023-02-26T15:18:09.002Z,1019
2023-02-26T15:19:24.896Z,1019
2023-02-26T15:20:41.090Z,1019
2023-02-26T15:21:56.579Z,1019
2023-02-26T15:23:12.756Z,1019
2023-02-26T15:24:28.954Z,1019
2023-02-26T15:25:45.129Z,1019.1
2023-02-26T15:27:01.052Z,1019.1
2023-02-26T15:28:17.521Z,1019.1
2023-02-26T15:29:33.703Z,1019.1
2023-02-26T15:30:48.921Z,1019.1
2023-02-26T15:32:04.127Z,1019.2
2023-02-26T15:33:19.331Z,1019.1
2023-02-26T15:34:34.541Z,1019.1
2023-02-26T15:35:50.704Z,1019.1
2023-02-26T15:37:06.918Z,1019.1
2023-02-26T15:38:23.096Z,1019.2
2023-02-26T15:39:39.269Z,1019.2
2023-02-26T15:40:55.466Z,1019.1
2023-02-26T15:42:11.659Z,1019.2
2023-02-26T15:43:27.825Z,1019.2
2023-02-26T15:44:44.035Z,1019.2
2023-02-26T15:46:00.231Z,1019.2
2023-02-26T15:47:16.401Z,1019.1
2023-02-26T15:48:32.592Z,1019.2
2023-02-26T15:49:48.776Z,1019.2
2023-02-26T15:51:03.985Z,1019.2
2023-02-26T15:52:20.149Z,1019.2
2023-02-26T15:53:36.363Z,1019.3
2023-02-26T15:54:52.547Z,1019.2
2023-02-26T15:56:08.712Z,1019.2